Time;durP1;ratioP1;P1;durP2;ratioP2;P2;SDS_P1;SDS_P2;PMS_P1;PMS_P2;Temp;Humidity;BMP_temperature;BMP_pressure;BME280_temperature;BME280_humidity;BME280_pressure;Samples;Min_cycle;Max_cycle;Signal;HPM_P1;HPM_P2
2023/09/01 00:00:33;;;;;;;4.68;1.50;;;10.60;99.90;;;;;;5033901;28;20068;-66
2023/09/01 00:02:58;;;;;;;2.92;1.60;;;10.60;99.90;;;;;;5035188;28;20075;-65
2023/09/01 00:05:24;;;;;;;4.13;1.52;;;10.60;99.90;;;;;;5039444;28;20337;-65
2023/09/01 00:07:50;;;;;;;6.13;1.38;;;10.60;99.90;;;;;;5030569;28;20047;-65
2023/09/01 00:10:15;;;;;;;3.13;1.23;;;10.60;99.90;;;;;;5012654;28;20041;-65
2023/09/01 00:12:41;;;;;;;5.00;1.40;;;10.60;99.90;;;;;;5033109;28;20059;-65
2023/09/01 00:15:07;;;;;;;4.20;1.25;;;10.50;99.90;;;;;;5038787;28;20112;-65
2023/09/01 00:17:32;;;;;;;2.63;1.33;;;10.50;99.90;;;;;;5025534;28;20141;-65
2023/09/01 00:19:58;;;;;;;3.28;1.50;;;10.50;99.90;;;;;;5042703;28;20060;-65
2023/09/01 00:22:23;;;;;;;3.35;1.50;;;10.50;99.90;;;;;;5038966;28;20049;-65
2023/09/01 00:24:49;;;;;;;3.78;1.65;;;10.50;99.90;;;;;;5027307;28;20548;-66
2023/09/01 00:27:15;;;;;;;2.40;1.10;;;10.50;99.90;;;;;;5030488;28;20038;-66
2023/09/01 00:29:41;;;;;;;3.45;1.50;;;10.50;99.90;;;;;;5036318;28;20086;-66
2023/09/01 00:32:06;;;;;;;1.88;1.38;;;10.50;99.90;;;;;;5034111;28;20470;-65
2023/09/01 00:34:32;;;;;;;4.28;1.50;;;10.50;99.90;;;;;;5023822;28;20607;-65
2023/09/01 00:36:58;;;;;;;3.95;1.40;;;10.50;99.90;;;;;;5031624;28;20075;-65
2023/09/01 00:39:23;;;;;;;4.32;1.42;;;10.50;99.90;;;;;;5035175;28;20048;-65
2023/09/01 00:41:49;;;;;;;2.20;1.00;;;10.50;99.90;;;;;;5056182;28;20060;-65
2023/09/01 00:44:15;;;;;;;2.25;1.17;;;10.50;99.90;;;;;;5031132;28;20049;-65
2023/09/01 00:46:46;;;;;;;2.55;1.15;;;10.50;99.90;;;;;;5029762;28;20072;-65
2023/09/01 00:49:12;;;;;;;3.90;1.30;;;10.50;99.90;;;;;;5026873;28;20037;-65
2023/09/01 00:51:38;;;;;;;3.17;1.20;;;10.50;99.90;;;;;;5043666;28;20033;-65
2023/09/01 00:54:04;;;;;;;2.83;1.55;;;10.50;99.90;;;;;;5019670;28;20816;-65
2023/09/01 00:56:31;;;;;;;3.67;1.25;;;10.50;99.90;;;;;;5034327;28;20052;-65
2023/09/01 00:58:56;;;;;;;3.85;1.27;;;10.50;99.90;;;;;;5029611;28;20174;-65
2023/09/01 01:01:22;;;;;;;3.95;1.40;;;10.60;99.90;;;;;;5028397;28;20108;-65
2023/09/01 01:03:51;;;;;;;3.28;1.48;;;10.70;99.90;;;;;;5035291;28;20075;-66
2023/09/01 01:06:35;;;;;;;4.22;1.20;;;10.60;99.90;;;;;;5038769;28;20029;-65
2023/09/01 01:09:21;;;;;;;4.03;1.30;;;10.70;99.90;;;;;;5036850;28;20076;-65
2023/09/01 01:12:09;;;;;;;2.92;1.40;;;10.70;99.90;;;;;;5029550;28;20051;-65
2023/09/01 01:14:44;;;;;;;2.20;1.20;;;10.70;99.90;;;;;;5029385;28;20048;-65
2023/09/01 01:17:12;;;;;;;1.60;1.40;;;10.70;99.90;;;;;;5044478;28;20058;-65
2023/09/01 01:20:02;;;;;;;5.82;1.70;;;10.60;99.90;;;;;;5030519;28;20049;-65
2023/09/01 01:22:48;;;;;;;3.97;1.50;;;10.50;99.90;;;;;;5028448;28;20041;-65
2023/09/01 01:25:14;;;;;;;4.63;1.33;;;10.50;99.90;;;;;;5018094;28;20038;-65
2023/09/01 01:27:42;;;;;;;2.88;1.20;;;10.40;99.90;;;;;;5029597;28;20041;-65
2023/09/01 01:30:09;;;;;;;6.22;2.05;;;10.40;99.90;;;;;;5039719;28;20341;-66
2023/09/01 01:32:36;;;;;;;2.10;1.50;;;10.30;99.90;;;;;;5036996;28;20048;-65
2023/09/01 01:35:24;;;;;;;1.98;1.17;;;10.30;99.90;;;;;;5037340;28;20045;-65
2023/09/01 01:38:00;;;;;;;4.68;1.42;;;10.20;99.90;;;;;;5041220;28;20124;-65
2023/09/01 01:40:28;;;;;;;1.85;1.20;;;10.20;99.90;;;;;;5042288;28;20152;-65
2023/09/01 01:42:56;;;;;;;1.95;1.15;;;10.20;99.90;;;;;;5037284;28;20037;-65
2023/09/01 01:45:23;;;;;;;4.78;1.60;;;10.10;99.90;;;;;;5038708;28;20148;-66
2023/09/01 01:47:51;;;;;;;4.18;1.20;;;10.10;99.90;;;;;;5036982;28;20045;-65
2023/09/01 01:50:17;;;;;;;12.73;2.63;;;10.20;99.90;;;;;;5029842;28;20159;-65
2023/09/01 01:52:43;;;;;;;5.75;1.50;;;10.20;99.90;;;;;;5052226;28;20053;-65
2023/09/01 01:55:09;;;;;;;4.90;1.33;;;10.20;99.90;;;;;;5043436;28;20624;-66
2023/09/01 01:57:36;;;;;;;4.55;1.10;;;10.20;99.90;;;;;;5035465;28;20047;-65
2023/09/01 02:00:11;;;;;;;3.38;1.42;;;10.20;99.90;;;;;;5030975;28;20140;-65
2023/09/01 02:02:38;;;;;;;4.45;1.15;;;10.20;99.90;;;;;;5054575;28;20057;-65
2023/09/01 02:05:06;;;;;;;4.53;1.80;;;10.20;99.90;;;;;;5031421;28;20041;-65
2023/09/01 02:07:32;;;;;;;3.10;1.58;;;10.10;99.90;;;;;;5029066;28;20029;-65
2023/09/01 02:09:58;;;;;;;3.35;1.70;;;10.10;99.90;;;;;;5041750;28;20043;-65
2023/09/01 02:12:23;;;;;;;3.20;1.50;;;10.20;99.90;;;;;;5034344;28;20120;-66
2023/09/01 02:14:49;;;;;;;5.03;1.40;;;10.20;99.90;;;;;;5038535;28;20136;-65
2023/09/01 02:17:15;;;;;;;5.03;1.70;;;10.20;99.90;;;;;;5036770;28;20045;-65
2023/09/01 02:19:40;;;;;;;5.10;1.70;;;10.20;99.90;;;;;;5027980;28;20045;-65
2023/09/01 02:22:06;;;;;;;2.53;1.40;;;10.20;99.90;;;;;;5036518;28;20032;-65
2023/09/01 02:24:32;;;;;;;3.38;1.27;;;10.20;99.90;;;;;;5037055;28;20043;-65
2023/09/01 02:26:57;;;;;;;3.10;1.45;;;10.20;99.90;;;;;;5045578;28;20111;-65
2023/09/01 02:29:23;;;;;;;6.38;1.90;;;10.30;99.90;;;;;;5037954;28;20037;-66
2023/09/01 02:31:48;;;;;;;3.58;1.58;;;10.30;99.90;;;;;;5044181;28;20112;-65
2023/09/01 02:34:14;;;;;;;2.72;1.40;;;10.30;99.90;;;;;;5046462;28;20060;-65
2023/09/01 02:36:39;;;;;;;5.28;1.92;;;10.40;99.90;;;;;;5041917;28;20137;-65
2023/09/01 02:39:05;;;;;;;3.08;1.30;;;10.40;99.90;;;;;;5032261;28;20236;-65
2023/09/01 02:41:31;;;;;;;2.95;1.80;;;10.30;99.90;;;;;;5028385;28;20041;-65
2023/09/01 02:43:57;;;;;;;2.47;1.60;;;10.40;99.90;;;;;;5041879;28;20052;-65
2023/09/01 02:46:23;;;;;;;3.53;1.80;;;10.30;99.90;;;;;;5044166;28;20507;-65
2023/09/01 02:48:49;;;;;;;3.03;1.48;;;10.40;99.90;;;;;;5040637;28;20132;-66
2023/09/01 02:51:15;;;;;;;3.38;1.70;;;10.40;99.90;;;;;;5036812;28;20422;-65
2023/09/01 02:53:41;;;;;;;6.95;1.88;;;10.30;99.90;;;;;;5032905;28;20041;-66
2023/09/01 02:56:07;;;;;;;3.17;1.67;;;10.30;99.90;;;;;;5039992;28;20099;-65
2023/09/01 02:58:32;;;;;;;5.70;1.90;;;10.20;99.90;;;;;;5011771;28;20089;-65
2023/09/01 03:00:58;;;;;;;4.88;1.75;;;10.20;99.90;;;;;;5040198;28;20036;-65
2023/09/01 03:03:24;;;;;;;3.65;1.50;;;10.20;99.90;;;;;;5038927;28;20039;-65
2023/09/01 03:05:51;;;;;;;2.88;1.48;;;10.20;99.90;;;;;;5014557;28;20111;-65
2023/09/01 03:08:23;;;;;;;3.13;1.50;;;10.20;99.90;;;;;;5042414;28;20036;-65
2023/09/01 03:10:49;;;;;;;3.28;1.58;;;10.20;99.90;;;;;;5029641;28;20044;-66
2023/09/01 03:13:14;;;;;;;3.83;1.75;;;10.10;99.90;;;;;;5044172;28;20048;-65
2023/09/01 03:15:41;;;;;;;2.88;1.40;;;10.10;99.90;;;;;;5035640;28;20100;-65
2023/09/01 03:18:07;;;;;;;2.15;1.52;;;10.10;99.90;;;;;;5033373;28;20504;-66
2023/09/01 03:20:34;;;;;;;4.65;1.80;;;10.00;99.90;;;;;;5041805;28;20057;-65
2023/09/01 03:22:59;;;;;;;4.45;1.85;;;10.00;99.90;;;;;;5041968;28;20059;-65
2023/09/01 03:25:25;;;;;;;3.15;1.80;;;10.00;99.90;;;;;;5039576;28;20037;-65
2023/09/01 03:27:50;;;;;;;7.57;1.70;;;9.90;99.90;;;;;;5045219;28;20029;-65
2023/09/01 03:30:16;;;;;;;5.95;2.10;;;9.90;99.90;;;;;;5032545;28;20041;-65
2023/09/01 03:32:41;;;;;;;4.32;1.70;;;9.90;99.90;;;;;;5039402;28;20037;-66
2023/09/01 03:35:07;;;;;;;2.60;1.70;;;9.90;99.90;;;;;;5025536;28;22623;-65
2023/09/01 03:37:33;;;;;;;4.05;1.80;;;9.80;99.90;;;;;;5026311;28;20473;-65
2023/09/01 03:39:59;;;;;;;5.95;3.05;;;9.80;99.90;;;;;;5041352;28;20460;-65
2023/09/01 03:42:25;;;;;;;5.07;1.73;;;9.80;99.90;;;;;;5045661;28;20047;-65
2023/09/01 03:44:51;;;;;;;5.18;1.60;;;9.80;99.90;;;;;;5035266;28;20824;-65
2023/09/01 03:47:18;;;;;;;2.42;1.50;;;9.80;99.90;;;;;;5026458;28;20029;-65
2023/09/01 03:49:43;;;;;;;3.08;1.80;;;9.80;99.90;;;;;;5012679;28;20661;-65
2023/09/01 03:52:09;;;;;;;4.75;2.05;;;9.80;99.90;;;;;;5037950;28;20045;-66
2023/09/01 03:54:34;;;;;;;5.15;2.10;;;9.80;99.90;;;;;;5040239;28;20041;-65
2023/09/01 03:57:00;;;;;;;2.90;1.73;;;9.70;99.90;;;;;;5047946;28;20037;-65
2023/09/01 03:59:25;;;;;;;3.60;1.90;;;9.70;99.90;;;;;;5037476;28;20063;-65
2023/09/01 04:01:51;;;;;;;3.80;1.52;;;9.60;99.90;;;;;;5028064;28;20037;-65
2023/09/01 04:04:18;;;;;;;7.30;2.50;;;9.60;99.90;;;;;;5035009;28;20508;-66
2023/09/01 04:06:43;;;;;;;4.43;2.15;;;9.60;99.90;;;;;;5028686;28;20064;-66
2023/09/01 04:09:10;;;;;;;4.25;1.95;;;9.60;99.90;;;;;;5033746;28;20057;-65
2023/09/01 04:11:35;;;;;;;4.63;1.90;;;9.50;99.90;;;;;;5030790;28;20116;-66
2023/09/01 04:14:01;;;;;;;3.33;2.00;;;9.50;99.90;;;;;;5023745;28;20044;-65
2023/09/01 04:16:27;;;;;;;3.10;1.77;;;9.50;99.90;;;;;;5024036;28;20202;-65
2023/09/01 04:18:54;;;;;;;3.28;1.77;;;9.40;99.90;;;;;;5027632;28;20048;-65
2023/09/01 04:21:20;;;;;;;4.85;1.90;;;9.40;99.90;;;;;;5034202;28;20041;-65
2023/09/01 04:23:46;;;;;;;3.33;1.90;;;9.40;99.90;;;;;;5031227;28;20492;-65
2023/09/01 04:26:12;;;;;;;2.67;1.98;;;9.40;99.90;;;;;;5036923;28;20049;-65
2023/09/01 04:28:37;;;;;;;3.55;1.80;;;9.40;99.90;;;;;;5038623;28;20127;-65
2023/09/01 04:31:14;;;;;;;3.30;1.98;;;9.30;99.90;;;;;;5034503;28;20223;-66
2023/09/01 04:33:39;;;;;;;7.72;1.95;;;9.30;99.90;;;;;;5042469;28;20039;-66
2023/09/01 04:36:05;;;;;;;4.30;2.03;;;9.20;99.90;;;;;;5033529;28;20048;-65
2023/09/01 04:38:31;;;;;;;4.47;2.20;;;9.20;99.90;;;;;;5037326;28;20127;-65
2023/09/01 04:40:57;;;;;;;2.30;1.90;;;9.20;99.90;;;;;;5044810;28;20052;-66
2023/09/01 04:43:25;;;;;;;3.88;2.17;;;9.20;99.90;;;;;;5040593;28;20048;-65
2023/09/01 04:45:51;;;;;;;3.75;2.05;;;9.20;99.90;;;;;;5034612;28;20099;-65
2023/09/01 04:48:17;;;;;;;2.30;1.60;;;9.10;99.90;;;;;;5038903;28;20056;-65
2023/09/01 04:50:43;;;;;;;3.30;2.00;;;9.20;99.90;;;;;;5037041;28;20045;-66
2023/09/01 04:53:09;;;;;;;5.07;2.20;;;9.20;99.90;;;;;;5036966;28;20457;-65
2023/09/01 04:55:34;;;;;;;4.70;2.25;;;9.20;99.90;;;;;;5033020;28;20441;-65
2023/09/01 04:58:00;;;;;;;4.18;2.13;;;9.20;99.90;;;;;;5038998;28;20041;-66
2023/09/01 05:00:26;;;;;;;3.58;2.33;;;9.30;99.90;;;;;;5026694;28;20745;-66
2023/09/01 05:02:51;;;;;;;4.05;2.30;;;9.30;99.90;;;;;;5038495;28;20386;-66
2023/09/01 05:05:17;;;;;;;4.78;2.60;;;9.40;99.90;;;;;;5041099;28;20068;-65
2023/09/01 05:07:42;;;;;;;7.82;2.88;;;9.40;99.90;;;;;;5036123;28;20844;-65
2023/09/01 05:10:09;;;;;;;4.47;2.67;;;9.50;99.90;;;;;;5036703;28;20049;-65
2023/09/01 05:12:35;;;;;;;6.13;3.05;;;9.50;99.90;;;;;;5030097;28;20033;-66
2023/09/01 05:15:01;;;;;;;3.42;2.80;;;9.60;99.90;;;;;;5031434;28;20104;-65
2023/09/01 05:17:27;;;;;;;3.63;2.50;;;9.60;99.90;;;;;;5010297;28;20686;-66
2023/09/01 05:19:54;;;;;;;4.57;2.50;;;9.60;99.90;;;;;;5038610;28;20512;-65
2023/09/01 05:22:19;;;;;;;5.85;3.05;;;9.60;99.90;;;;;;5031934;28;20033;-65
2023/09/01 05:24:47;;;;;;;6.60;3.50;;;9.60;99.90;;;;;;5015135;28;20618;-65
2023/09/01 05:27:13;;;;;;;7.50;4.43;;;9.60;99.90;;;;;;5033690;28;20048;-65
2023/09/01 05:29:38;;;;;;;8.73;4.93;;;9.70;99.90;;;;;;5031077;28;20054;-65
2023/09/01 05:32:04;;;;;;;5.50;3.42;;;9.70;99.90;;;;;;5050551;28;20106;-65
2023/09/01 05:34:29;;;;;;;8.77;4.32;;;9.80;99.90;;;;;;5040198;28;20470;-66
2023/09/01 05:36:57;;;;;;;7.47;4.53;;;9.90;99.90;;;;;;5040121;28;20044;-65
2023/09/01 05:39:23;;;;;;;6.90;4.03;;;9.90;99.90;;;;;;5037048;28;20042;-66
2023/09/01 05:41:49;;;;;;;8.05;4.18;;;10.00;99.90;;;;;;5030802;28;20095;-66
2023/09/01 05:44:15;;;;;;;7.72;4.03;;;10.10;99.90;;;;;;5026023;28;20049;-66
2023/09/01 05:46:40;;;;;;;5.85;3.50;;;10.10;99.90;;;;;;5036684;28;20052;-65
2023/09/01 05:49:06;;;;;;;7.22;3.53;;;10.20;99.90;;;;;;5040109;28;20033;-65
2023/09/01 05:51:31;;;;;;;6.70;3.65;;;10.20;99.90;;;;;;5023261;28;20029;-65
2023/09/01 05:53:57;;;;;;;12.65;3.35;;;10.30;99.90;;;;;;5018352;28;20171;-65
2023/09/01 05:56:22;;;;;;;4.97;3.55;;;10.40;99.90;;;;;;5039967;28;20054;-67
2023/09/01 05:58:49;;;;;;;7.45;3.63;;;10.40;99.90;;;;;;5043731;28;20488;-65
2023/09/01 06:01:14;;;;;;;7.55;3.88;;;10.50;99.90;;;;;;5040356;28;20114;-66
2023/09/01 06:03:40;;;;;;;7.78;4.70;;;10.60;99.90;;;;;;5047600;28;20037;-66
2023/09/01 06:06:07;;;;;;;7.75;4.43;;;10.70;99.90;;;;;;5033863;28;20088;-66
2023/09/01 06:08:32;;;;;;;5.28;3.85;;;10.70;99.90;;;;;;5038248;28;20112;-66
2023/09/01 06:11:12;;;;;;;4.88;3.33;;;10.80;99.90;;;;;;5029452;28;20045;-66
2023/09/01 06:13:37;;;;;;;5.22;3.60;;;10.90;99.90;;;;;;5030126;28;20041;-67
2023/09/01 06:16:04;;;;;;;6.68;3.85;;;11.00;99.90;;;;;;5027896;28;20315;-66
2023/09/01 06:18:30;;;;;;;5.90;3.80;;;11.10;99.90;;;;;;5028171;28;20051;-66
2023/09/01 06:20:55;;;;;;;8.32;3.83;;;11.10;99.90;;;;;;5040478;28;20064;-65
2023/09/01 06:23:21;;;;;;;5.40;3.63;;;11.20;99.90;;;;;;5044515;28;20046;-65
2023/09/01 06:25:46;;;;;;;5.53;3.70;;;11.30;99.90;;;;;;5035161;28;20045;-66
2023/09/01 06:28:12;;;;;;;5.72;3.97;;;11.40;99.90;;;;;;5037119;28;20041;-66
2023/09/01 06:30:40;;;;;;;7.55;3.80;;;11.50;99.90;;;;;;5028851;28;20366;-66
2023/09/01 06:33:07;;;;;;;5.75;3.97;;;11.60;99.90;;;;;;5023623;28;20069;-65
2023/09/01 06:35:34;;;;;;;5.40;3.90;;;11.80;99.90;;;;;;5040898;28;20037;-66
2023/09/01 06:38:02;;;;;;;5.97;4.35;;;12.00;99.90;;;;;;5037878;28;20044;-66
2023/09/01 06:40:28;;;;;;;5.72;4.03;;;12.20;99.90;;;;;;5040543;28;20099;-66
2023/09/01 06:42:53;;;;;;;6.10;3.67;;;12.50;99.90;;;;;;5035500;28;20428;-66
2023/09/01 06:45:19;;;;;;;6.80;3.60;;;12.70;99.90;;;;;;5028473;28;20045;-66
2023/09/01 06:47:44;;;;;;;5.32;3.35;;;13.00;99.90;;;;;;5028859;28;20033;-66
2023/09/01 06:50:10;;;;;;;6.95;3.83;;;13.20;99.90;;;;;;5045459;28;20115;-66
2023/09/01 06:52:35;;;;;;;9.13;3.80;;;13.40;99.90;;;;;;5026526;28;20046;-67
2023/09/01 06:55:01;;;;;;;6.47;3.30;;;13.70;99.90;;;;;;5034243;28;20202;-67
2023/09/01 06:57:27;;;;;;;6.25;3.28;;;13.90;99.90;;;;;;5039951;28;20909;-66
2023/09/01 06:59:53;;;;;;;5.57;3.00;;;14.10;99.90;;;;;;5032154;28;20052;-66
2023/09/01 07:02:18;;;;;;;4.30;3.08;;;14.30;99.90;;;;;;5030416;28;20645;-67
2023/09/01 07:04:44;;;;;;;5.88;3.20;;;14.50;99.90;;;;;;5042551;28;20412;-67
2023/09/01 07:07:09;;;;;;;5.78;3.40;;;14.60;99.90;;;;;;5035287;28;20471;-66
2023/09/01 07:09:35;;;;;;;4.60;3.40;;;14.70;99.90;;;;;;5042807;28;20759;-66
2023/09/01 07:12:01;;;;;;;6.50;3.25;;;14.80;99.90;;;;;;5028527;28;20348;-67
2023/09/01 07:14:27;;;;;;;5.10;3.60;;;15.00;99.90;;;;;;5041490;28;20488;-66
2023/09/01 07:16:52;;;;;;;6.50;3.85;;;15.00;99.90;;;;;;5021873;28;20075;-66
2023/09/01 07:19:18;;;;;;;7.07;4.30;;;15.20;99.90;;;;;;5035376;28;20072;-67
2023/09/01 07:21:43;;;;;;;6.88;4.22;;;15.30;99.90;;;;;;5044239;28;20098;-66
2023/09/01 07:24:11;;;;;;;7.68;3.92;;;15.50;99.90;;;;;;5043388;28;20350;-67
2023/09/01 07:26:37;;;;;;;7.70;4.47;;;15.70;99.90;;;;;;5049787;28;20094;-67
2023/09/01 07:29:03;;;;;;;6.38;4.20;;;15.90;99.90;;;;;;5044090;28;20140;-67
2023/09/01 07:31:28;;;;;;;7.43;4.20;;;16.00;99.90;;;;;;5042071;28;20462;-67
2023/09/01 07:33:54;;;;;;;6.05;4.15;;;16.00;99.90;;;;;;5043040;28;20047;-67
2023/09/01 07:36:21;;;;;;;8.38;4.88;;;16.10;99.90;;;;;;5039737;28;20030;-67
2023/09/01 07:38:47;;;;;;;7.82;4.10;;;16.20;99.90;;;;;;5035323;28;20045;-66
2023/09/01 07:41:13;;;;;;;6.65;4.10;;;16.20;99.90;;;;;;5028899;28;20038;-67
2023/09/01 07:43:39;;;;;;;7.18;4.43;;;16.30;99.90;;;;;;5037506;28;20047;-67
2023/09/01 07:46:04;;;;;;;9.10;4.97;;;16.30;99.90;;;;;;5045147;28;20037;-67
2023/09/01 07:48:30;;;;;;;9.77;4.50;;;16.20;99.90;;;;;;5023315;28;20040;-67
2023/09/01 07:50:56;;;;;;;8.27;4.30;;;16.20;99.90;;;;;;5045400;28;20046;-67
2023/09/01 07:53:21;;;;;;;7.35;4.28;;;16.20;99.90;;;;;;5027670;28;20041;-67
2023/09/01 07:55:47;;;;;;;7.93;4.00;;;16.30;99.90;;;;;;5028566;28;20041;-67
2023/09/01 07:58:12;;;;;;;6.28;4.28;;;16.40;99.90;;;;;;5015180;28;20118;-67
2023/09/01 08:00:39;;;;;;;7.63;5.20;;;16.50;99.90;;;;;;5030057;28;20048;-67
2023/09/01 08:03:10;;;;;;;8.60;5.57;;;16.50;99.90;;;;;;5036628;28;20095;-67
2023/09/01 08:05:36;;;;;;;8.40;5.53;;;16.50;99.90;;;;;;5042937;28;20048;-67
2023/09/01 08:08:02;;;;;;;6.35;4.15;;;16.50;99.90;;;;;;5048515;28;20049;-67
2023/09/01 08:10:28;;;;;;;8.00;5.00;;;16.60;99.90;;;;;;5042545;28;20032;-67
2023/09/01 08:12:53;;;;;;;7.78;4.95;;;16.60;99.90;;;;;;5047251;28;20063;-67
2023/09/01 08:15:19;;;;;;;11.57;5.57;;;16.60;99.90;;;;;;5040507;28;20045;-67
2023/09/01 08:17:45;;;;;;;8.80;5.00;;;16.60;99.90;;;;;;5028104;28;20127;-68
2023/09/01 08:20:10;;;;;;;8.45;4.75;;;16.60;99.90;;;;;;5034881;28;20090;-67
2023/09/01 08:22:36;;;;;;;9.07;4.65;;;16.70;99.90;;;;;;5032800;28;20145;-67
2023/09/01 08:25:02;;;;;;;6.30;3.88;;;16.90;99.90;;;;;;5008615;28;20054;-67
2023/09/01 08:27:28;;;;;;;7.50;4.57;;;17.00;99.90;;;;;;5060997;28;20033;-68
2023/09/01 08:29:54;;;;;;;6.78;3.53;;;17.30;99.90;;;;;;5030908;28;20048;-69
2023/09/01 08:32:20;;;;;;;7.20;3.67;;;17.50;99.90;;;;;;5029008;28;20082;-68
2023/09/01 08:34:49;;;;;;;8.68;4.10;;;17.70;99.90;;;;;;5047252;28;20404;-68
2023/09/01 08:37:19;;;;;;;6.35;4.00;;;17.70;99.90;;;;;;5045282;28;20044;-68
2023/09/01 08:39:45;;;;;;;8.43;3.70;;;17.80;99.90;;;;;;5032287;28;20045;-68
2023/09/01 08:42:11;;;;;;;5.60;3.90;;;17.90;99.90;;;;;;5050094;28;20110;-68
2023/09/01 08:44:39;;;;;;;5.53;3.53;;;18.00;99.90;;;;;;5030892;28;20409;-68
2023/09/01 08:47:07;;;;;;;5.90;3.60;;;18.00;98.60;;;;;;5046698;28;20149;-68
2023/09/01 08:49:33;;;;;;;5.82;3.20;;;18.20;98.70;;;;;;5044466;28;20130;-68
2023/09/01 08:52:00;;;;;;;6.53;4.38;;;18.30;98.40;;;;;;5031529;28;20369;-69
2023/09/01 08:54:25;;;;;;;6.35;3.63;;;18.20;97.60;;;;;;5043055;28;20076;-68
2023/09/01 08:56:51;;;;;;;5.85;3.45;;;18.20;97.30;;;;;;5047875;28;20130;-68
2023/09/01 08:59:17;;;;;;;6.60;3.20;;;18.10;97.20;;;;;;5034726;28;20038;-68
2023/09/01 09:01:42;;;;;;;7.55;4.07;;;18.00;96.60;;;;;;5037049;28;20124;-68
2023/09/01 09:04:08;;;;;;;7.55;4.10;;;18.00;96.40;;;;;;5045425;28;20044;-68
2023/09/01 09:06:36;;;;;;;4.60;3.30;;;18.00;96.30;;;;;;5014655;28;20052;-69
2023/09/01 09:09:14;;;;;;;6.80;3.95;;;18.10;95.90;;;;;;5014656;28;20040;-68
2023/09/01 09:11:59;;;;;;;6.45;3.20;;;18.10;94.80;;;;;;5043200;28;20041;-68
2023/09/01 09:14:27;;;;;;;6.60;4.38;;;18.00;94.00;;;;;;5029456;28;20693;-68
2023/09/01 09:16:57;;;;;;;6.78;4.43;;;18.10;95.10;;;;;;5038319;28;20095;-68
2023/09/01 09:19:24;;;;;;;7.25;4.65;;;18.20;94.90;;;;;;5031560;28;20076;-68
2023/09/01 09:22:05;;;;;;;5.47;3.55;;;18.20;94.80;;;;;;5027637;28;20033;-69
2023/09/01 09:24:36;;;;;;;6.05;3.78;;;18.40;94.30;;;;;;5034478;28;20506;-68
2023/09/01 09:27:03;;;;;;;6.55;3.83;;;18.60;93.70;;;;;;5039852;28;20401;-69
2023/09/01 09:29:40;;;;;;;6.47;4.07;;;18.60;94.20;;;;;;5020977;28;20051;-67
2023/09/01 09:32:19;;;;;;;8.10;3.85;;;18.80;93.10;;;;;;5050338;28;20044;-68
2023/09/01 09:35:05;;;;;;;7.18;3.55;;;18.80;93.00;;;;;;5018290;28;20056;-68
2023/09/01 09:37:32;;;;;;;5.10;2.97;;;18.90;93.60;;;;;;5050396;28;20413;-67
2023/09/01 09:40:18;;;;;;;6.10;2.92;;;18.90;93.00;;;;;;5035861;28;20041;-67
2023/09/01 09:42:46;;;;;;;7.47;3.20;;;18.70;89.50;;;;;;5039277;28;20053;-68
2023/09/01 09:45:23;;;;;;;6.90;2.97;;;18.60;92.00;;;;;;5035434;28;20538;-68
2023/09/01 09:47:50;;;;;;;4.50;3.00;;;18.60;90.50;;;;;;5045929;28;20144;-67
2023/09/01 09:50:19;;;;;;;4.20;2.80;;;18.70;91.40;;;;;;5046422;28;20045;-68
2023/09/01 09:52:49;;;;;;;5.28;2.60;;;18.70;90.80;;;;;;5045515;28;20111;-67
2023/09/01 09:55:22;;;;;;;;;;;18.90;90.50;;;;;;5037618;28;20044;-67
2023/09/01 09:57:49;;;;;;;8.55;2.90;;;18.80;88.00;;;;;;5039921;28;20395;-68
2023/09/01 10:00:15;;;;;;;9.13;2.53;;;18.60;91.00;;;;;;5034119;28;20045;-66
2023/09/01 10:02:47;;;;;;;8.40;3.42;;;18.70;90.70;;;;;;5036070;28;20104;-67
2023/09/01 10:05:15;;;;;;;4.78;2.75;;;18.70;89.70;;;;;;5021643;28;20060;-68
2023/09/01 10:07:42;;;;;;;7.70;3.65;;;18.70;90.30;;;;;;5032986;28;20068;-69
2023/09/01 10:10:08;;;;;;;6.10;3.25;;;18.80;90.00;;;;;;5041162;28;20056;-68
2023/09/01 10:12:35;;;;;;;9.27;3.15;;;18.70;90.00;;;;;;5023445;28;20065;-68
2023/09/01 10:15:05;;;;;;;6.82;3.03;;;18.80;89.80;;;;;;5017879;28;20068;-68
2023/09/01 10:17:33;;;;;;;5.78;3.10;;;18.90;90.10;;;;;;5039970;28;20037;-68
2023/09/01 10:20:00;;;;;;;7.75;4.03;;;18.90;88.90;;;;;;5046659;28;20393;-68
2023/09/01 10:22:26;;;;;;;9.40;4.20;;;18.90;89.20;;;;;;5049111;28;20041;-67
2023/09/01 10:25:12;;;;;;;8.68;3.67;;;18.90;89.50;;;;;;5045381;28;20053;-67
2023/09/01 10:27:58;;;;;;;10.13;4.70;;;18.90;90.10;;;;;;5048673;28;20035;-67
2023/09/01 10:30:28;;;;;;;7.88;4.97;;;18.80;89.50;;;;;;5039912;28;20095;-68
2023/09/01 10:33:07;;;;;;;9.55;5.50;;;18.80;89.10;;;;;;5044890;28;20035;-70
2023/09/01 10:35:40;;;;;;;8.00;4.95;;;18.70;89.10;;;;;;5049644;28;20072;-68
2023/09/01 10:38:11;;;;;;;12.55;4.90;;;18.80;90.10;;;;;;5015772;28;20045;-68
2023/09/01 10:41:06;;;;;;;11.18;5.22;;;18.80;89.90;;;;;;5041876;28;20119;-68
2023/09/01 10:43:37;;;;;;;10.73;6.07;;;18.80;89.90;;;;;;5035119;28;20045;-69
2023/09/01 10:46:12;;;;;;;12.77;5.40;;;18.80;90.30;;;;;;5031993;28;20122;-68
2023/09/01 10:48:52;;;;;;;9.25;4.88;;;18.80;90.50;;;;;;5038020;28;20044;-69
2023/09/01 10:51:24;;;;;;;7.80;4.90;;;18.90;90.70;;;;;;5048641;28;20040;-68
2023/09/01 10:53:55;;;;;;;13.77;5.47;;;18.90;90.60;;;;;;5032176;28;20121;-67
2023/09/01 10:56:21;;;;;;;10.00;5.20;;;18.90;90.40;;;;;;5032616;28;20047;-68
2023/09/01 10:58:52;;;;;;;7.20;5.53;;;18.90;90.20;;;;;;5043317;28;20200;-68
2023/09/01 11:01:27;;;;;;;6.97;5.18;;;18.90;90.10;;;;;;5042278;28;20041;-68
2023/09/01 11:03:53;;;;;;;8.30;5.45;;;18.90;90.20;;;;;;5039360;28;20045;-67
2023/09/01 11:06:20;;;;;;;11.98;5.10;;;18.90;90.40;;;;;;5034457;28;20556;-68
2023/09/01 11:08:59;;;;;;;10.52;5.70;;;19.10;90.50;;;;;;5048013;28;20040;-67
2023/09/01 11:11:24;;;;;;;9.50;5.88;;;19.20;90.80;;;;;;5046112;28;20078;-68
2023/09/01 11:14:06;;;;;;;12.77;5.63;;;19.20;90.50;;;;;;5036529;28;20132;-67
2023/09/01 11:16:31;;;;;;;12.50;6.00;;;19.20;89.20;;;;;;5041724;28;20096;-66
2023/09/01 11:19:03;;;;;;;10.18;5.47;;;19.20;89.20;;;;;;5033817;28;20068;-68
2023/09/01 11:21:32;;;;;;;10.45;5.65;;;19.30;89.70;;;;;;5029341;28;20036;-69
2023/09/01 11:24:01;;;;;;;9.18;5.50;;;19.40;89.40;;;;;;5039029;28;20045;-68
2023/09/01 11:26:27;;;;;;;10.55;6.53;;;19.40;89.60;;;;;;5041048;28;20045;-68
2023/09/01 11:28:54;;;;;;;12.18;7.85;;;19.30;89.30;;;;;;5035820;28;20105;-67
2023/09/01 11:31:20;;;;;;;13.00;7.50;;;19.30;88.90;;;;;;5031648;28;20049;-68
2023/09/01 11:33:53;;;;;;;12.32;6.57;;;19.10;89.30;;;;;;5042269;28;20041;-68
2023/09/01 11:36:19;;;;;;;11.88;8.38;;;19.20;89.70;;;;;;5029919;28;20460;-68
2023/09/01 11:38:45;;;;;;;11.95;7.10;;;19.20;90.00;;;;;;5037806;28;20120;-68
2023/09/01 11:41:19;;;;;;;14.23;7.68;;;19.40;90.00;;;;;;5042217;28;20546;-68
2023/09/01 11:43:45;;;;;;;13.27;8.63;;;19.60;90.10;;;;;;5029593;28;20442;-68
2023/09/01 11:46:11;;;;;;;20.98;10.65;;;19.80;89.20;;;;;;5042414;28;20125;-69
2023/09/01 11:48:37;;;;;;;21.55;11.25;;;19.80;88.30;;;;;;5042323;28;20029;-68
2023/09/01 11:51:04;;;;;;;17.05;9.85;;;19.90;87.40;;;;;;5035432;28;20109;-68
2023/09/01 11:53:35;;;;;;;20.98;10.95;;;20.10;87.40;;;;;;5044840;28;20048;-68
2023/09/01 11:56:15;;;;;;;;;;;20.10;86.30;;;;;;5021865;28;20051;-69
2023/09/01 11:58:41;;;;;;;;;;;20.00;88.80;;;;;;5010327;28;19917;-67
2023/09/01 12:01:10;;;;;;;16.20;9.90;;;19.90;87.40;;;;;;5050647;28;19924;-70
2023/09/01 12:03:37;;;;;;;13.95;9.10;;;20.00;86.60;;;;;;5035811;28;20103;-68
2023/09/01 12:06:18;;;;;;;16.40;9.18;;;20.10;85.90;;;;;;5044232;28;20529;-66
2023/09/01 12:08:43;;;;;;;14.45;8.35;;;20.20;84.10;;;;;;5049480;28;20477;-69
2023/09/01 12:11:09;;;;;;;15.73;8.40;;;20.30;83.90;;;;;;5044440;28;20136;-69
2023/09/01 12:13:35;;;;;;;16.23;9.13;;;20.20;83.60;;;;;;5049644;28;20041;-69
2023/09/01 12:16:02;;;;;;;13.75;8.13;;;20.30;80.90;;;;;;5043175;28;20167;-69
2023/09/01 12:18:30;;;;;;;15.10;7.57;;;20.20;83.30;;;;;;5041775;28;20046;-68
2023/09/01 12:20:56;;;;;;;10.80;7.30;;;20.40;82.50;;;;;;5040632;28;20107;-68
2023/09/01 12:23:25;;;;;;;13.45;7.43;;;20.40;81.90;;;;;;5044419;28;20474;-70
2023/09/01 12:25:51;;;;;;;12.52;7.65;;;20.60;81.20;;;;;;5029814;28;20046;-69
2023/09/01 12:28:16;;;;;;;11.85;6.95;;;20.70;80.60;;;;;;5030846;28;20128;-68
2023/09/01 12:30:42;;;;;;;12.52;7.20;;;20.80;80.60;;;;;;5045941;28;20532;-68
2023/09/01 12:33:07;;;;;;;14.32;7.88;;;20.90;80.40;;;;;;5047493;28;20037;-69
2023/09/01 12:35:33;;;;;;;15.88;8.85;;;20.90;79.50;;;;;;5046140;28;20764;-68
2023/09/01 12:37:59;;;;;;;13.18;7.95;;;20.80;79.10;;;;;;5048167;28;20080;-67
2023/09/01 12:40:24;;;;;;;15.88;8.85;;;20.80;78.50;;;;;;5047521;28;20500;-68
2023/09/01 12:42:50;;;;;;;16.30;7.78;;;20.80;78.30;;;;;;5049060;28;20041;-69
2023/09/01 12:45:15;;;;;;;10.07;7.78;;;20.90;78.30;;;;;;5040308;28;20104;-68
2023/09/01 12:47:41;;;;;;;12.85;7.13;;;21.10;78.20;;;;;;5024584;28;20429;-70
2023/09/01 12:50:07;;;;;;;9.02;6.63;;;21.10;78.20;;;;;;5030289;28;20492;-67